createdAt,value
2022-10-17T00:00:12.355Z,98685.28
2022-10-17T00:02:38.966Z,98690.16
2022-10-17T00:05:05.715Z,98686.59
2022-10-17T00:07:32.354Z,98686.81
2022-10-17T00:09:59.293Z,98686.22
2022-10-17T00:12:25.952Z,98691.34
2022-10-17T00:14:52.566Z,98691.34
2022-10-17T00:17:19.288Z,98695.88
2022-10-17T00:19:46.003Z,98685.59
2022-10-17T00:22:13.433Z,98693.72
2022-10-17T00:24:40.107Z,98691.09
2022-10-17T00:27:06.784Z,98689.41
2022-10-17T00:29:33.541Z,98695.38
2022-10-17T00:32:00.239Z,98692.16
2022-10-17T00:34:29.193Z,98697.53
2022-10-17T00:36:57.503Z,98699.66
2022-10-17T00:39:24.930Z,98700.41
2022-10-17T00:41:51.586Z,98694.31
2022-10-17T00:44:31.831Z,98697.75
2022-10-17T00:47:01.911Z,98686.53
2022-10-17T00:49:31.104Z,98686.13
2022-10-17T00:52:02.202Z,98685.75
2022-10-17T00:54:39.663Z,98691.84
2022-10-17T00:57:07.007Z,98688.13
2022-10-17T00:59:36.060Z,98692.56
2022-10-17T01:02:13.506Z,98689.03
2022-10-17T01:04:44.604Z,98685.69
2022-10-17T01:07:12.640Z,98686.41
2022-10-17T01:09:41.012Z,98681.41
2022-10-17T01:12:23.264Z,98679.09
2022-10-17T01:15:13.257Z,98683.97
2022-10-17T01:17:39.818Z,98683.72
2022-10-17T01:20:29.535Z,98690.78
2022-10-17T01:22:56.127Z,98683.91
2022-10-17T01:25:59.650Z,98682.34
2022-10-17T01:28:54.272Z,98688.44
2022-10-17T01:31:29.640Z,98690.31
2022-10-17T01:34:12.366Z,98692.97
2022-10-17T01:36:50.670Z,98691.00
2022-10-17T01:39:25.025Z,98696.59
2022-10-17T01:42:02.744Z,98695.63
2022-10-17T01:44:44.123Z,98691.94
2022-10-17T01:47:15.973Z,98696.06
2022-10-17T01:49:45.717Z,98689.75
2022-10-17T01:52:23.224Z,98693.84
2022-10-17T01:54:55.639Z,98691.13
2022-10-17T01:57:34.933Z,98697.59
2022-10-17T02:00:05.733Z,98693.78
2022-10-17T02:02:41.219Z,98695.66
2022-10-17T02:05:08.856Z,98695.38
2022-10-17T02:07:35.490Z,98692.84
2022-10-17T02:10:09.151Z,98697.28
2022-10-17T02:13:17.390Z,98682.91
2022-10-17T02:16:14.228Z,98686.69
2022-10-17T02:18:53.004Z,98687.66
2022-10-17T02:21:44.190Z,98696.16
2022-10-17T02:24:16.955Z,98697.72
2022-10-17T02:26:52.705Z,98696.38
2022-10-17T02:29:33.285Z,98698.38
2022-10-17T02:32:12.398Z,98698.06
2022-10-17T02:34:47.597Z,98705.84
2022-10-17T02:37:19.366Z,98702.06
2022-10-17T02:39:47.599Z,98700.56
2022-10-17T02:42:15.851Z,98699.34
2022-10-17T02:44:44.927Z,98703.94
2022-10-17T02:47:54.386Z,98701.09
2022-10-17T02:50:26.642Z,98705.41
2022-10-17T02:53:00.643Z,98708.44
2022-10-17T02:55:43.300Z,98702.69
2022-10-17T02:58:21.007Z,98714.03
2022-10-17T03:00:48.948Z,98707.50
2022-10-17T03:03:28.149Z,98721.22
2022-10-17T03:05:58.988Z,98715.66
2022-10-17T03:08:26.422Z,98709.81
2022-10-17T03:10:53.150Z,98708.63
2022-10-17T03:13:21.428Z,98713.75
2022-10-17T03:15:48.298Z,98711.88
2022-10-17T03:18:14.984Z,98712.63
2022-10-17T03:20:41.711Z,98714.72
2022-10-17T03:23:08.691Z,98704.88
2022-10-17T03:25:36.360Z,98714.63
2022-10-17T03:28:03.182Z,98725.53
2022-10-17T03:30:29.801Z,98721.13
2022-10-17T03:32:58.512Z,98732.03
2022-10-17T03:35:26.079Z,98728.75
2022-10-17T03:37:52.807Z,98722.16
2022-10-17T03:40:21.813Z,98725.75
2022-10-17T03:42:48.526Z,98728.38
2022-10-17T03:45:15.147Z,98728.75
2022-10-17T03:47:42.256Z,98733.63
2022-10-17T03:50:09.290Z,98734.34
2022-10-17T03:52:38.153Z,98739.16
2022-10-17T03:55:05.273Z,98735.16
2022-10-17T03:57:32.325Z,98735.38
2022-10-17T03:59:59.281Z,98732.84
2022-10-17T04:02:25.986Z,98739.56
2022-10-17T04:04:52.811Z,98739.94
2022-10-17T04:07:19.484Z,98742.78
2022-10-17T04:09:48.151Z,98743.94
2022-10-17T04:12:19.081Z,98744.16
2022-10-17T04:14:46.282Z,98747.81
2022-10-17T04:17:14.022Z,98746.84
2022-10-17T04:19:40.790Z,98747.94
2022-10-17T04:22:10.170Z,98750.34
2022-10-17T04:24:39.084Z,98749.84
2022-10-17T04:27:09.405Z,98754.69
2022-10-17T04:29:40.201Z,98758.44
2022-10-17T04:32:20.595Z,98757.09
2022-10-17T04:34:56.160Z,98755.38
2022-10-17T04:37:23.636Z,98755.59
2022-10-17T04:39:52.654Z,98769.25
2022-10-17T04:42:19.951Z,98765.56
2022-10-17T04:44:47.102Z,98760.63
2022-10-17T04:47:16.282Z,98766.31
2022-10-17T04:49:43.632Z,98762.00
2022-10-17T04:52:10.992Z,98761.28
2022-10-17T04:54:40.663Z,98752.84
2022-10-17T04:57:10.074Z,98750.66
2022-10-17T04:59:37.140Z,98766.16
2022-10-17T05:02:27.739Z,98767.84
2022-10-17T05:04:55.289Z,98774.38
2022-10-17T05:07:22.202Z,98771.03
2022-10-17T05:10:10.807Z,98782.00
2022-10-17T05:12:39.282Z,98783.56
2022-10-17T05:15:06.695Z,98782.63
2022-10-17T05:17:35.205Z,98777.69
2022-10-17T05:20:01.929Z,98774.25
2022-10-17T05:22:30.949Z,98784.88
2022-10-17T05:25:00.569Z,98785.94
2022-10-17T05:27:27.189Z,98784.44
2022-10-17T05:29:53.836Z,98781.84
2022-10-17T05:32:26.940Z,98777.94
2022-10-17T05:34:53.731Z,98780.91
2022-10-17T05:37:22.589Z,98775.97
2022-10-17T05:39:51.826Z,98784.78
2022-10-17T05:42:19.692Z,98779.84
2022-10-17T05:44:47.240Z,98789.78
2022-10-17T05:47:16.179Z,98791.53
2022-10-17T05:49:48.549Z,98800.91
2022-10-17T05:52:19.949Z,98801.53
2022-10-17T05:55:10.181Z,98797.31
2022-10-17T05:57:36.941Z,98810.13
2022-10-17T06:00:06.998Z,98809.22
2022-10-17T06:02:45.957Z,98813.13
2022-10-17T06:05:15.265Z,98815.00
2022-10-17T06:07:42.802Z,98818.28
2022-10-17T06:10:12.357Z,98822.19
2022-10-17T06:12:39.803Z,98821.56
2022-10-17T06:15:08.630Z,98823.03
2022-10-17T06:17:36.237Z,98833.31
2022-10-17T06:20:03.097Z,98837.09
2022-10-17T06:22:30.116Z,98838.03
2022-10-17T06:24:57.399Z,98840.44
2022-10-17T06:27:24.232Z,98844.41
2022-10-17T06:29:51.290Z,98846.72
2022-10-17T06:32:18.335Z,98841.69
2022-10-17T06:34:49.226Z,98846.50
2022-10-17T06:37:17.009Z,98859.09
2022-10-17T06:39:45.711Z,98857.84
2022-10-17T06:42:15.903Z,98866.66
2022-10-17T06:45:09.585Z,98859.44
2022-10-17T06:47:51.867Z,98868.97
2022-10-17T06:50:37.207Z,98863.06
2022-10-17T06:53:12.535Z,98869.34
2022-10-17T06:56:02.855Z,98876.56
2022-10-17T06:58:51.314Z,98879.47
2022-10-17T07:01:29.925Z,98883.03
2022-10-17T07:03:58.754Z,98891.06
2022-10-17T07:06:25.917Z,98890.28
2022-10-17T07:08:55.800Z,98890.44
2022-10-17T07:11:23.206Z,98898.38
2022-10-17T07:13:52.299Z,98893.13
2022-10-17T07:16:21.242Z,98893.28
2022-10-17T07:18:52.571Z,98894.03
2022-10-17T07:21:21.031Z,98892.25
2022-10-17T07:23:48.454Z,98895.56
2022-10-17T07:26:16.690Z,98887.78
2022-10-17T07:28:46.511Z,98890.66
2022-10-17T07:31:24.427Z,98888.50
2022-10-17T07:33:51.362Z,98901.19
2022-10-17T07:36:18.944Z,98897.94
2022-10-17T07:38:46.246Z,98899.94
2022-10-17T07:41:17.754Z,98895.91
2022-10-17T07:43:48.804Z,98903.72
2022-10-17T07:46:19.072Z,98897.81
2022-10-17T07:48:46.132Z,98902.00
2022-10-17T07:51:13.065Z,98896.75
2022-10-17T07:53:42.768Z,98895.97
2022-10-17T07:56:12.433Z,98903.16
2022-10-17T07:58:39.416Z,98892.78
2022-10-17T08:01:10.846Z,98893.53
2022-10-17T08:03:44.327Z,98902.94
2022-10-17T08:06:11.506Z,98897.94
2022-10-17T08:08:38.356Z,98907.81
2022-10-17T08:11:08.058Z,98899.16
2022-10-17T08:13:35.294Z,98905.50
2022-10-17T08:16:04.324Z,98901.06
2022-10-17T08:18:30.997Z,98905.28
2022-10-17T08:21:01.940Z,98902.53
2022-10-17T08:23:28.826Z,98900.91
2022-10-17T08:25:58.504Z,98910.06
2022-10-17T08:28:25.237Z,98910.56
2022-10-17T08:30:51.900Z,98912.84
2022-10-17T08:33:18.551Z,98902.06
2022-10-17T08:35:45.172Z,98899.41
2022-10-17T08:38:13.406Z,98900.31
2022-10-17T08:40:42.843Z,98903.53
2022-10-17T08:43:15.662Z,98903.16
2022-10-17T08:45:51.587Z,98899.38
2022-10-17T08:48:23.555Z,98903.31
2022-10-17T08:50:53.016Z,98903.34
2022-10-17T08:53:50.615Z,98894.31
2022-10-17T08:56:30.327Z,98898.22
2022-10-17T08:59:06.447Z,98895.16
2022-10-17T09:01:44.497Z,98902.50
2022-10-17T09:04:49.520Z,98898.09
2022-10-17T09:08:12.774Z,98901.38
2022-10-17T09:11:00.586Z,98894.47
2022-10-17T09:13:33.387Z,98900.31
2022-10-17T09:16:11.604Z,98899.66
2022-10-17T09:18:46.084Z,98900.50
2022-10-17T09:21:33.452Z,98900.00
2022-10-17T09:24:15.409Z,98901.19
2022-10-17T09:26:45.344Z,98901.38
2022-10-17T09:29:22.710Z,98892.50
2022-10-17T09:32:02.553Z,98895.84
2022-10-17T09:34:31.485Z,98886.28
2022-10-17T09:37:00.771Z,98892.03
2022-10-17T09:39:32.050Z,98892.69
2022-10-17T09:42:01.438Z,98898.06
2022-10-17T09:44:35.494Z,98890.91
2022-10-17T09:47:15.241Z,98888.22
2022-10-17T09:49:44.767Z,98892.56
2022-10-17T09:52:18.555Z,98889.78
2022-10-17T09:54:47.005Z,98896.63
2022-10-17T09:57:15.573Z,98895.31
2022-10-17T09:59:45.578Z,98896.09
2022-10-17T10:02:23.833Z,98900.50
2022-10-17T10:05:07.491Z,98897.81
2022-10-17T10:07:39.236Z,98899.22
2022-10-17T10:10:07.894Z,98897.78
2022-10-17T10:12:38.046Z,98894.19
2022-10-17T10:15:38.671Z,98905.66
2022-10-17T10:18:25.305Z,98894.78
2022-10-17T10:21:13.642Z,98892.03
2022-10-17T10:23:43.044Z,98897.88
2022-10-17T10:26:26.451Z,98900.34
2022-10-17T10:29:00.741Z,98896.41
2022-10-17T10:31:39.859Z,98900.09
2022-10-17T10:34:25.179Z,98897.13
2022-10-17T10:36:59.107Z,98891.13
2022-10-17T10:39:32.084Z,98892.16
2022-10-17T10:42:01.259Z,98890.88
2022-10-17T10:44:32.158Z,98893.06
2022-10-17T10:47:24.068Z,98885.78
2022-10-17T10:49:53.289Z,98889.44
2022-10-17T10:52:30.602Z,98884.16
2022-10-17T10:55:10.337Z,98884.25
2022-10-17T10:57:39.707Z,98873.63
2022-10-17T11:00:21.271Z,98881.69
2022-10-17T11:03:01.805Z,98877.28
2022-10-17T11:05:34.778Z,98877.28
2022-10-17T11:08:20.475Z,98868.47
2022-10-17T11:10:59.855Z,98866.53
2022-10-17T11:13:40.224Z,98866.13
2022-10-17T11:16:19.414Z,98874.28
2022-10-17T11:18:50.885Z,98868.72
2022-10-17T11:21:34.185Z,98865.19
2022-10-17T11:24:15.050Z,98861.78
2022-10-17T11:27:05.906Z,98860.47
2022-10-17T11:29:35.207Z,98856.84
2022-10-17T11:32:13.902Z,98855.00
2022-10-17T11:34:53.602Z,98853.69
2022-10-17T11:37:25.539Z,98852.13
2022-10-17T11:39:58.747Z,98846.91
2022-10-17T11:42:38.375Z,98848.91
2022-10-17T11:45:11.941Z,98853.75
2022-10-17T11:47:46.831Z,98849.22
2022-10-17T11:53:18.336Z,98844.72
2022-10-17T11:55:46.668Z,98844.72
2022-10-17T11:58:22.369Z,98851.25
2022-10-17T12:01:27.988Z,98847.22
2022-10-17T12:04:08.222Z,98844.13
2022-10-17T12:07:09.276Z,98843.19
2022-10-17T12:09:51.958Z,98838.34
2022-10-17T12:12:33.257Z,98845.50
2022-10-17T12:15:26.334Z,98847.97
2022-10-17T12:18:06.588Z,98838.16
2022-10-17T12:20:38.457Z,98839.25
2022-10-17T12:23:11.152Z,98837.06
2022-10-17T12:25:51.920Z,98831.09
2022-10-17T12:28:18.622Z,98837.88
2022-10-17T12:31:06.191Z,98829.59
2022-10-17T12:33:49.489Z,98831.16
2022-10-17T12:36:18.857Z,98834.53
2022-10-17T12:38:49.865Z,98823.06
2022-10-17T12:41:37.156Z,98822.47
2022-10-17T12:44:21.592Z,98812.81
2022-10-17T12:46:55.467Z,98813.41
2022-10-17T12:49:54.340Z,98815.41
2022-10-17T12:52:59.123Z,98815.94
2022-10-17T12:55:26.422Z,98814.41
2022-10-17T12:58:08.182Z,98806.59
2022-10-17T13:01:18.858Z,98800.31
2022-10-17T13:03:44.605Z,98801.28
2022-10-17T13:06:23.859Z,98799.72
2022-10-17T13:09:04.462Z,98795.66
2022-10-17T13:11:33.617Z,98801.47
2022-10-17T13:14:03.377Z,98797.41
2022-10-17T13:16:39.339Z,98798.59
2022-10-17T13:19:24.536Z,98793.69
2022-10-17T13:22:06.900Z,98805.88
2022-10-17T13:24:39.463Z,98799.88
2022-10-17T13:27:21.966Z,98804.00
2022-10-17T13:29:48.626Z,98809.03
2022-10-17T13:32:15.320Z,98799.56
2022-10-17T13:34:42.026Z,98802.00
2022-10-17T13:37:14.861Z,98801.16
2022-10-17T13:39:54.799Z,98807.09
2022-10-17T13:42:29.232Z,98809.38
2022-10-17T13:44:57.581Z,98812.47
2022-10-17T13:47:28.101Z,98803.75
2022-10-17T13:49:55.862Z,98802.16
2022-10-17T13:52:27.088Z,98803.25
2022-10-17T13:54:55.054Z,98800.66
2022-10-17T13:57:25.087Z,98802.50
2022-10-17T14:00:09.900Z,98803.16
2022-10-17T14:02:42.899Z,98807.09
2022-10-17T14:05:19.210Z,98811.88
2022-10-17T14:10:42.267Z,98812.75
2022-10-17T14:13:21.205Z,98810.69
2022-10-17T14:15:48.396Z,98810.66
2022-10-17T14:18:21.000Z,98822.06
2022-10-17T14:23:43.023Z,98820.44
2022-10-17T14:26:23.581Z,98826.81
2022-10-17T14:29:06.997Z,98823.50
2022-10-17T14:31:36.651Z,98828.50
2022-10-17T14:34:05.401Z,98816.91
2022-10-17T14:36:36.264Z,98820.44
2022-10-17T14:39:04.836Z,98822.34
2022-10-17T14:41:44.123Z,98824.75
2022-10-17T14:44:25.898Z,98831.09
2022-10-17T14:46:56.695Z,98819.31
2022-10-17T14:49:28.539Z,98816.09
2022-10-17T14:52:17.553Z,98812.25
2022-10-17T14:54:48.921Z,98817.31
2022-10-17T14:57:43.555Z,98818.22
2022-10-17T15:00:15.090Z,98818.34
2022-10-17T15:02:41.925Z,98809.25
2022-10-17T15:05:13.073Z,98806.59
2022-10-17T15:07:40.586Z,98812.41
2022-10-17T15:10:11.962Z,98823.81
2022-10-17T15:12:39.789Z,98816.88
2022-10-17T15:15:12.999Z,98820.09
2022-10-17T15:17:41.819Z,98813.94
2022-10-17T15:20:17.760Z,98823.09
2022-10-17T15:22:45.615Z,98810.28
2022-10-17T15:25:12.320Z,98817.41
2022-10-17T15:27:38.995Z,98814.16
2022-10-17T15:30:21.600Z,98814.44
2022-10-17T15:32:49.505Z,98814.50
2022-10-17T15:35:17.509Z,98817.59
2022-10-17T15:37:46.365Z,98824.19
2022-10-17T15:40:20.869Z,98824.13
2022-10-17T15:42:47.813Z,98826.34
2022-10-17T15:45:17.659Z,98829.22
2022-10-17T15:47:50.954Z,98827.53
2022-10-17T15:50:18.407Z,98830.56
2022-10-17T15:52:47.032Z,98834.88
2022-10-17T15:55:13.861Z,98831.19
2022-10-17T15:57:44.073Z,98839.16
2022-10-17T16:00:20.516Z,98833.94
2022-10-17T16:02:49.328Z,98834.38
2022-10-17T16:05:18.023Z,98836.78
2022-10-17T16:07:48.470Z,98838.53
2022-10-17T16:10:16.422Z,98842.59
2022-10-17T16:12:43.724Z,98849.06
2022-10-17T16:15:16.363Z,98842.97
2022-10-17T16:17:43.874Z,98834.75
2022-10-17T16:20:12.213Z,98841.66
2022-10-17T16:22:40.698Z,98848.03
2022-10-17T16:25:20.489Z,98849.41
2022-10-17T16:27:49.367Z,98851.47
2022-10-17T16:30:16.499Z,98856.78
2022-10-17T16:32:43.619Z,98860.75
2022-10-17T16:35:16.351Z,98860.81
2022-10-17T16:37:43.074Z,98863.72
2022-10-17T16:40:10.424Z,98869.06
2022-10-17T16:42:37.112Z,98867.16
2022-10-17T16:45:04.150Z,98861.22
2022-10-17T16:47:30.792Z,98866.66
2022-10-17T16:49:57.529Z,98866.75
2022-10-17T16:52:24.179Z,98866.06
2022-10-17T16:54:50.856Z,98881.03
2022-10-17T16:57:17.491Z,98878.69
2022-10-17T16:59:44.186Z,98878.16
2022-10-17T17:02:12.039Z,98886.13
2022-10-17T17:04:38.803Z,98886.72
2022-10-17T17:07:05.426Z,98883.81
2022-10-17T17:09:32.065Z,98887.84
2022-10-17T17:11:58.693Z,98890.09
2022-10-17T17:14:25.296Z,98889.72
2022-10-17T17:16:51.941Z,98890.41
2022-10-17T17:19:18.676Z,98894.31
2022-10-17T17:21:50.118Z,98892.50
2022-10-17T17:24:18.080Z,98887.63
2022-10-17T17:26:45.282Z,98897.56
2022-10-17T17:29:12.250Z,98906.34
2022-10-17T17:31:39.363Z,98897.00
2022-10-17T17:34:09.659Z,98907.34
2022-10-17T17:36:38.502Z,98905.53
2022-10-17T17:39:09.218Z,98904.00
2022-10-17T17:41:35.902Z,98903.97
2022-10-17T17:44:03.480Z,98905.47
2022-10-17T17:46:30.499Z,98901.88
2022-10-17T17:48:57.251Z,98896.97
2022-10-17T17:51:28.327Z,98903.94
2022-10-17T17:53:56.367Z,98906.28
2022-10-17T17:56:30.618Z,98912.16
2022-10-17T17:59:01.105Z,98908.22
2022-10-17T18:01:30.520Z,98905.03
2022-10-17T18:04:01.693Z,98912.56
2022-10-17T18:06:28.924Z,98906.16
2022-10-17T18:08:58.026Z,98899.31
2022-10-17T18:11:26.182Z,98907.94
2022-10-17T18:14:01.232Z,98903.19
2022-10-17T18:16:29.530Z,98915.72
2022-10-17T18:18:56.597Z,98905.66
2022-10-17T18:21:23.601Z,98911.81
2022-10-17T18:23:51.778Z,98916.13
2022-10-17T18:26:18.953Z,98906.53
2022-10-17T18:28:46.036Z,98912.34
2022-10-17T18:31:12.574Z,98908.97
2022-10-17T18:33:39.822Z,98912.56
2022-10-17T18:36:09.665Z,98910.31
2022-10-17T18:38:36.970Z,98917.81
2022-10-17T18:41:09.435Z,98930.50
2022-10-17T18:43:37.368Z,98918.94
2022-10-17T18:46:12.421Z,98914.31
2022-10-17T18:48:44.475Z,98915.72
2022-10-17T18:51:12.574Z,98918.91
2022-10-17T18:53:44.582Z,98917.47
2022-10-17T18:56:12.320Z,98918.47
2022-10-17T18:58:39.972Z,98919.09
2022-10-17T19:01:09.852Z,98912.53
2022-10-17T19:03:37.218Z,98911.47
2022-10-17T19:06:10.124Z,98915.09
2022-10-17T19:08:38.067Z,98915.22
2022-10-17T19:11:10.095Z,98918.13
2022-10-17T19:13:37.526Z,98916.16
2022-10-17T19:16:21.443Z,98922.00
2022-10-17T19:18:53.276Z,98914.72
2022-10-17T19:21:21.945Z,98926.91
2022-10-17T19:23:55.186Z,98927.41
2022-10-17T19:26:22.341Z,98930.91
2022-10-17T19:28:52.116Z,98928.84
2022-10-17T19:31:26.239Z,98928.84
2022-10-17T19:33:54.912Z,98928.06
2022-10-17T19:36:26.291Z,98921.81
2022-10-17T19:38:56.743Z,98924.00
2022-10-17T19:41:23.815Z,98929.53
2022-10-17T19:43:50.885Z,98941.47
2022-10-17T19:46:20.691Z,98933.22
2022-10-17T19:48:49.239Z,98938.06
2022-10-17T19:51:17.727Z,98928.44
2022-10-17T19:53:44.823Z,98938.44
2022-10-17T19:56:12.417Z,98934.25
2022-10-17T19:58:46.523Z,98933.38
2022-10-17T20:01:15.973Z,98934.25
2022-10-17T20:03:42.995Z,98929.78
2022-10-17T20:06:09.638Z,98937.13
2022-10-17T20:08:38.255Z,98940.03
2022-10-17T20:11:10.867Z,98940.28
2022-10-17T20:13:38.237Z,98935.25
2022-10-17T20:16:06.431Z,98942.81
2022-10-17T20:18:34.119Z,98948.25
2022-10-17T20:21:09.978Z,98940.69
2022-10-17T20:23:37.582Z,98936.38
2022-10-17T20:26:25.314Z,98937.09
2022-10-17T20:28:54.174Z,98934.47
2022-10-17T20:31:21.710Z,98933.19
2022-10-17T20:33:49.212Z,98935.56
2022-10-17T20:36:16.694Z,98941.81
2022-10-17T20:38:43.813Z,98927.91
2022-10-17T20:41:10.942Z,98934.16
2022-10-17T20:43:38.598Z,98930.78
2022-10-17T20:46:22.936Z,98938.81
2022-10-17T20:48:54.515Z,98939.66
2022-10-17T20:51:22.155Z,98930.78
2022-10-17T20:53:48.971Z,98935.47
2022-10-17T20:56:24.405Z,98928.91
2022-10-17T20:58:56.598Z,98925.38
2022-10-17T21:01:25.309Z,98930.56
2022-10-17T21:03:52.743Z,98930.69
2022-10-17T21:06:20.294Z,98938.28
2022-10-17T21:08:48.511Z,98930.56
2022-10-17T21:11:23.398Z,98939.47
2022-10-17T21:13:56.540Z,98940.56
2022-10-17T21:16:23.501Z,98934.56
2022-10-17T21:18:50.674Z,98928.69
2022-10-17T21:21:26.789Z,98926.91
2022-10-17T21:23:56.226Z,98925.09
2022-10-17T21:26:23.249Z,98926.03
2022-10-17T21:28:50.469Z,98917.41
2022-10-17T21:31:19.953Z,98926.28
2022-10-17T21:33:49.687Z,98920.41
2022-10-17T21:36:17.348Z,98921.13
2022-10-17T21:38:45.750Z,98918.84
2022-10-17T21:41:14.219Z,98922.06
2022-10-17T21:43:41.955Z,98918.84
2022-10-17T21:46:13.180Z,98920.78
2022-10-17T21:48:40.222Z,98921.03
2022-10-17T21:51:09.810Z,98906.88
2022-10-17T21:53:37.154Z,98914.78
2022-10-17T21:56:06.347Z,98903.59
2022-10-17T21:58:33.760Z,98913.31
2022-10-17T22:01:04.950Z,98916.09
2022-10-17T22:03:42.588Z,98910.22
2022-10-17T22:09:02.487Z,98908.91
2022-10-17T22:11:32.812Z,98894.88
2022-10-17T22:14:07.002Z,98895.34
2022-10-17T22:16:34.487Z,98896.19
2022-10-17T22:19:06.145Z,98904.34
2022-10-17T22:21:35.395Z,98899.44
2022-10-17T22:24:05.659Z,98902.19
2022-10-17T22:26:34.607Z,98894.63
2022-10-17T22:29:01.706Z,98903.38
2022-10-17T22:31:28.528Z,98893.19
2022-10-17T22:33:55.834Z,98892.44
2022-10-17T22:36:22.683Z,98893.88
2022-10-17T22:38:49.253Z,98887.19
2022-10-17T22:41:16.084Z,98893.66
2022-10-17T22:43:42.713Z,98892.69
2022-10-17T22:46:10.322Z,98889.09
2022-10-17T22:48:36.929Z,98888.84
2022-10-17T22:51:03.619Z,98883.84
2022-10-17T22:53:30.423Z,98878.78
2022-10-17T22:56:00.396Z,98878.19
2022-10-17T22:58:28.765Z,98870.50
2022-10-17T23:00:55.831Z,98873.03
2022-10-17T23:03:23.510Z,98875.06
2022-10-17T23:05:50.938Z,98869.19
2022-10-17T23:08:18.310Z,98860.78
2022-10-17T23:10:46.382Z,98869.06
2022-10-17T23:13:14.149Z,98868.44
2022-10-17T23:15:43.513Z,98862.22
2022-10-17T23:18:10.513Z,98862.91
2022-10-17T23:20:37.873Z,98863.16
2022-10-17T23:23:05.028Z,98863.84
2022-10-17T23:25:34.051Z,98859.78
2022-10-17T23:28:01.199Z,98861.47
2022-10-17T23:30:27.895Z,98859.28
2022-10-17T23:32:54.497Z,98860.97
2022-10-17T23:35:21.085Z,98862.88
2022-10-17T23:37:47.697Z,98847.09
2022-10-17T23:40:14.311Z,98845.88
2022-10-17T23:42:40.958Z,98843.97
2022-10-17T23:45:08.274Z,98856.75
2022-10-17T23:47:34.916Z,98846.31
2022-10-17T23:50:03.535Z,98839.38
2022-10-17T23:52:30.115Z,98832.66
2022-10-17T23:54:56.774Z,98836.25
2022-10-17T23:57:23.399Z,98850.59
2022-10-17T23:59:50.051Z,98849.97
